Time;durP1;ratioP1;P1;durP2;ratioP2;P2;SDS_P1;SDS_P2;PMS_P1;PMS_P2;Temp;Humidity;BMP_temperature;BMP_pressure;BME280_temperature;BME280_humidity;BME280_pressure;Samples;Min_cycle;Max_cycle;Signal;HPM_P1;HPM_P2
2022/03/20 00:22:43;;;;;;;5.60;4.70;;;;;;;;;;4255212;29;20372;-72
2022/03/20 00:25:09;;;;;;;8.38;4.90;;;;;;;;;;4136621;34;20095;-72
2022/03/20 00:27:37;;;;;;;10.07;5.03;;;;;;;;;;4136684;34;20122;-72
2022/03/20 00:30:03;;;;;;;7.75;4.72;;;;;;;;;;4136841;34;20451;-71
2022/03/20 00:32:29;;;;;;;7.30;5.10;;;;;;;;;;4126364;34;20123;-71
2022/03/20 00:34:59;;;;;;;7.78;5.47;;;;;;;;;;4110576;34;20127;-72
2022/03/20 00:37:27;;;;;;;7.55;4.75;;;;;;;;;;4123371;34;20119;-73
2022/03/20 00:39:53;;;;;;;8.13;5.15;;;;;;;;;;4114967;34;20213;-73
2022/03/20 00:42:19;;;;;;;7.15;4.50;;;;;;;;;;4136847;34;20524;-73
2022/03/20 00:44:45;;;;;;;8.95;5.60;;;;;;;;;;4136898;34;20122;-73
2022/03/20 00:47:12;;;;;;;9.20;5.28;;;;;;;;;;4136589;34;20127;-75
2022/03/20 00:49:38;;;;;;;6.55;4.90;;;;;;;;;;4136680;34;20115;-73
2022/03/20 00:52:04;;;;;;;10.70;5.53;;;;;;;;;;4136894;34;20131;-73
2022/03/20 00:54:30;;;;;;;7.78;4.62;;;;;;;;;;4136736;34;20115;-73
2022/03/20 00:56:56;;;;;;;8.00;5.00;;;;;;;;;;4144845;34;20103;-73
2022/03/20 00:59:22;;;;;;;7.45;4.68;;;;;;;;;;4123800;34;20126;-74
2022/03/20 01:01:48;;;;;;;8.15;4.95;;;;;;;;;;4136300;34;20124;-70
2022/03/20 01:04:14;;;;;;;7.60;5.28;;;;;;;;;;4136045;34;20334;-72
2022/03/20 01:06:40;;;;;;;9.02;5.30;;;;;;;;;;4123515;34;20562;-70
2022/03/20 01:09:07;;;;;;;6.45;4.87;;;;;;;;;;4134824;34;20199;-71
2022/03/20 01:11:34;;;;;;;6.03;4.90;;;;;;;;;;4123763;34;20111;-70
2022/03/20 01:14:00;;;;;;;8.13;4.60;;;;;;;;;;4136210;34;20186;-70
2022/03/20 01:16:26;;;;;;;10.95;5.35;;;;;;;;;;4123557;34;20591;-71
2022/03/20 01:18:52;;;;;;;6.40;4.82;;;;;;;;;;4136126;34;20096;-71
2022/03/20 01:21:18;;;;;;;6.93;4.85;;;;;;;;;;4136067;34;20214;-71
2022/03/20 01:23:45;;;;;;;7.32;5.18;;;;;;;;;;4135578;34;20135;-67
2022/03/20 01:26:11;;;;;;;6.22;4.57;;;;;;;;;;4123512;34;20107;-67
2022/03/20 01:28:37;;;;;;;7.62;5.18;;;;;;;;;;4135719;34;20512;-66
2022/03/20 01:31:03;;;;;;;11.02;5.82;;;;;;;;;;4136178;34;20198;-67
2022/03/20 01:33:29;;;;;;;9.77;5.07;;;;;;;;;;4138006;34;20530;-67
2022/03/20 01:35:55;;;;;;;9.30;5.00;;;;;;;;;;4137811;34;20500;-66
2022/03/20 01:38:21;;;;;;;7.78;4.85;;;;;;;;;;4137787;34;20206;-67
2022/03/20 01:40:48;;;;;;;10.32;5.70;;;;;;;;;;4137722;34;20119;-66
2022/03/20 01:43:15;;;;;;;10.55;5.37;;;;;;;;;;4125204;34;20100;-67
2022/03/20 01:45:41;;;;;;;11.15;5.97;;;;;;;;;;4125242;34;20206;-66
2022/03/20 01:48:07;;;;;;;9.05;4.90;;;;;;;;;;4137754;34;20517;-66
2022/03/20 01:50:33;;;;;;;7.55;5.07;;;;;;;;;;4137722;34;20532;-67
2022/03/20 01:52:59;;;;;;;6.97;5.05;;;;;;;;;;4137533;34;20187;-66
2022/03/20 01:55:26;;;;;;;11.80;6.37;;;;;;;;;;4125575;34;20118;-67
2022/03/20 01:57:54;;;;;;;9.30;5.00;;;;;;;;;;4137336;34;20115;-66
2022/03/20 02:00:21;;;;;;;6.78;5.03;;;;;;;;;;4125251;34;20206;-66
2022/03/20 02:02:47;;;;;;;9.38;5.28;;;;;;;;;;4125069;34;20528;-66
2022/03/20 02:05:14;;;;;;;13.77;5.40;;;;;;;;;;4137954;34;20096;-66
2022/03/20 02:07:41;;;;;;;7.47;4.70;;;;;;;;;;4125011;34;20131;-67
2022/03/20 02:10:08;;;;;;;11.32;5.18;;;;;;;;;;4137823;34;20134;-66
2022/03/20 02:12:38;;;;;;;7.95;5.30;;;;;;;;;;4125043;34;20131;-67
2022/03/20 02:15:06;;;;;;;10.15;5.40;;;;;;;;;;4125119;34;20135;-66
2022/03/20 02:17:32;;;;;;;8.65;5.85;;;;;;;;;;4125238;34;20110;-66
2022/03/20 02:19:59;;;;;;;10.27;5.22;;;;;;;;;;4137555;34;20099;-67
2022/03/20 02:22:25;;;;;;;9.95;5.53;;;;;;;;;;4137732;34;20108;-66
2022/03/20 02:24:52;;;;;;;8.30;5.95;;;;;;;;;;4137268;34;20807;-66
2022/03/20 02:27:23;;;;;;;8.75;5.43;;;;;;;;;;4137493;34;20120;-67
2022/03/20 02:30:00;;;;;;;10.38;4.70;;;;;;;;;;4137501;34;20123;-67
2022/03/20 02:32:28;;;;;;;9.10;6.07;;;;;;;;;;4137717;34;20204;-66
2022/03/20 02:35:00;;;;;;;9.07;5.47;;;;;;;;;;4124899;34;20536;-67
2022/03/20 02:37:28;;;;;;;7.70;5.85;;;;;;;;;;4124879;34;20509;-67
2022/03/20 02:39:57;;;;;;;11.50;5.80;;;;;;;;;;4124842;34;20143;-67
2022/03/20 02:42:23;;;;;;;13.77;7.53;;;;;;;;;;4124622;34;20230;-67
2022/03/20 02:44:51;;;;;;;12.88;7.32;;;;;;;;;;4124718;34;20218;-67
2022/03/20 02:47:20;;;;;;;9.57;6.22;;;;;;;;;;4137093;34;20546;-67
2022/03/20 02:49:53;;;;;;;10.23;5.15;;;;;;;;;;4137519;34;20106;-66
2022/03/20 02:52:22;;;;;;;10.38;5.28;;;;;;;;;;4135839;34;20135;-67
2022/03/20 02:54:48;;;;;;;7.55;5.20;;;;;;;;;;4137121;34;20108;-67
2022/03/20 02:57:14;;;;;;;9.43;5.97;;;;;;;;;;4137063;34;20146;-67
2022/03/20 02:59:40;;;;;;;8.95;5.55;;;;;;;;;;4137033;34;20281;-67
2022/03/20 03:02:09;;;;;;;8.68;6.60;;;;;;;;;;4137032;34;20131;-68
2022/03/20 03:04:37;;;;;;;9.32;5.87;;;;;;;;;;4137275;34;20123;-68
2022/03/20 03:07:04;;;;;;;9.13;5.65;;;;;;;;;;4137348;34;20139;-67
2022/03/20 03:12:14;;;;;;;7.87;5.45;;;;;;;;;;4137183;34;20107;-68
2022/03/20 03:17:27;;;;;;;8.38;6.07;;;;;;;;;;4137009;34;20149;-68
2022/03/20 03:19:57;;;;;;;9.30;6.43;;;;;;;;;;4124842;34;20119;-68
2022/03/20 03:22:26;;;;;;;9.73;6.00;;;;;;;;;;4124633;34;20198;-67
2022/03/20 03:24:54;;;;;;;11.57;6.22;;;;;;;;;;4124252;34;20087;-68
2022/03/20 03:27:20;;;;;;;8.35;6.12;;;;;;;;;;4113185;34;20133;-68
2022/03/20 03:29:46;;;;;;;7.82;6.10;;;;;;;;;;4124561;34;20135;-67
2022/03/20 03:32:12;;;;;;;10.30;6.10;;;;;;;;;;4137041;34;20127;-67
2022/03/20 03:37:23;;;;;;;8.93;5.70;;;;;;;;;;4126267;34;20514;-67
2022/03/20 03:39:49;;;;;;;8.73;5.93;;;;;;;;;;4124662;34;20604;-69
2022/03/20 03:42:15;;;;;;;8.80;5.90;;;;;;;;;;4136836;34;20607;-69
2022/03/20 03:44:41;;;;;;;12.75;5.82;;;;;;;;;;4137030;34;20168;-67
2022/03/20 03:47:07;;;;;;;9.70;6.03;;;;;;;;;;4136829;34;20203;-71
2022/03/20 03:49:34;;;;;;;9.10;6.25;;;;;;;;;;4113133;34;20116;-73
2022/03/20 03:52:03;;;;;;;7.97;6.05;;;;;;;;;;4135152;34;20538;-70
2022/03/20 03:54:29;;;;;;;8.48;6.30;;;;;;;;;;4136328;34;20096;-73
2022/03/20 03:56:55;;;;;;;8.43;6.32;;;;;;;;;;4136400;34;20139;-70
2022/03/20 03:59:21;;;;;;;8.30;5.75;;;;;;;;;;4136763;34;20115;-71
2022/03/20 04:01:49;;;;;;;9.20;5.90;;;;;;;;;;4112811;34;20114;-71
2022/03/20 04:04:15;;;;;;;14.00;6.30;;;;;;;;;;4124032;34;20512;-73
2022/03/20 04:06:41;;;;;;;10.60;6.72;;;;;;;;;;4124266;34;20227;-73
2022/03/20 04:09:07;;;;;;;8.50;5.85;;;;;;;;;;4136407;34;20127;-70
2022/03/20 04:11:33;;;;;;;7.50;6.10;;;;;;;;;;4136380;34;20130;-70
2022/03/20 04:13:59;;;;;;;7.57;5.65;;;;;;;;;;4123754;34;20139;-73
2022/03/20 04:16:25;;;;;;;8.52;5.30;;;;;;;;;;4124165;34;20235;-71
2022/03/20 04:18:51;;;;;;;10.05;5.87;;;;;;;;;;4136331;34;20116;-69
2022/03/20 04:21:23;;;;;;;11.20;7.25;;;;;;;;;;4136594;34;20198;-66
2022/03/20 04:23:52;;;;;;;19.75;11.23;;;;;;;;;;4124523;34;20124;-68
2022/03/20 04:26:20;;;;;;;19.42;10.82;;;;;;;;;;4136401;34;20190;-67
2022/03/20 04:28:50;;;;;;;19.45;10.85;;;;;;;;;;4136313;34;20662;-71
2022/03/20 04:31:17;;;;;;;21.60;11.98;;;;;;;;;;4135189;34;20705;-69
2022/03/20 04:33:48;;;;;;;19.73;9.73;;;;;;;;;;4124166;34;20104;-71
2022/03/20 04:36:15;;;;;;;11.05;7.25;;;;;;;;;;4124248;34;20122;-70
2022/03/20 04:38:41;;;;;;;11.52;6.95;;;;;;;;;;4113198;34;20135;-71
2022/03/20 04:41:07;;;;;;;10.95;6.55;;;;;;;;;;4139330;34;20559;-70
2022/03/20 04:43:33;;;;;;;10.93;6.22;;;;;;;;;;4114088;34;20461;-69
2022/03/20 04:45:59;;;;;;;8.48;5.87;;;;;;;;;;4128634;34;20115;-75
2022/03/20 04:59:24;;;;;;;9.48;5.47;;;;;;;;;;4121573;34;20150;-71
2022/03/20 05:01:50;;;;;;;10.43;5.57;;;;;;;;;;4121157;34;20128;-71
2022/03/20 05:04:16;;;;;;;9.73;5.75;;;;;;;;;;4129067;34;20135;-70
2022/03/20 05:06:45;;;;;;;11.12;5.47;;;;;;;;;;4127176;34;20116;-71
2022/03/20 05:14:41;;;;;;;8.33;4.90;;;;;;;;;;4121623;34;20585;-67
2022/03/20 05:17:08;;;;;;;10.88;5.62;;;;;;;;;;4122490;34;20548;-67
2022/03/20 05:19:37;;;;;;;8.38;5.97;;;;;;;;;;4121105;34;20191;-66
2022/03/20 05:22:04;;;;;;;7.35;5.37;;;;;;;;;;4117776;34;20130;-67
2022/03/20 05:24:31;;;;;;;11.50;6.18;;;;;;;;;;4135789;34;20131;-68
2022/03/20 05:26:57;;;;;;;15.50;6.70;;;;;;;;;;4123193;34;20203;-73
2022/03/20 05:29:24;;;;;;;7.78;5.97;;;;;;;;;;4123495;34;20099;-70
2022/03/20 05:31:49;;;;;;;9.73;6.43;;;;;;;;;;4135673;34;20204;-71
2022/03/20 05:34:16;;;;;;;17.55;6.40;;;;;;;;;;4135781;34;20557;-68
2022/03/20 05:36:43;;;;;;;10.48;6.95;;;;;;;;;;4123242;34;20204;-69
2022/03/20 05:39:09;;;;;;;12.25;6.40;;;;;;;;;;4123176;34;20196;-69
2022/03/20 05:41:47;;;;;;;8.52;6.28;;;;;;;;;;4135828;34;20119;-70
2022/03/20 05:44:17;;;;;;;13.73;6.12;;;;;;;;;;4133218;34;20224;-72
2022/03/20 05:46:46;;;;;;;13.13;6.45;;;;;;;;;;4123456;34;20103;-68
2022/03/20 05:49:13;;;;;;;12.55;7.12;;;;;;;;;;4123473;34;20512;-70
2022/03/20 05:51:40;;;;;;;13.57;6.70;;;;;;;;;;4123471;34;20126;-68
2022/03/20 05:54:06;;;;;;;11.05;6.32;;;;;;;;;;4145528;34;20118;-69
2022/03/20 05:59:17;;;;;;;11.68;6.57;;;;;;;;;;4143960;34;20099;-68
2022/03/20 06:01:43;;;;;;;11.35;6.87;;;;;;;;;;4135314;34;20122;-66
2022/03/20 06:04:10;;;;;;;9.55;6.30;;;;;;;;;;4134096;34;20608;-72
2022/03/20 06:06:37;;;;;;;12.18;6.35;;;;;;;;;;4135427;34;20126;-73
2022/03/20 06:09:04;;;;;;;13.13;6.85;;;;;;;;;;4122888;34;20212;-66
2022/03/20 06:11:30;;;;;;;21.92;7.72;;;;;;;;;;4122791;34;20100;-70
2022/03/20 06:13:58;;;;;;;10.70;6.97;;;;;;;;;;4111798;34;20111;-71
2022/03/20 06:16:28;;;;;;;9.80;7.70;;;;;;;;;;4119527;34;20428;-69
2022/03/20 06:19:08;;;;;;;11.50;7.28;;;;;;;;;;4129792;34;21169;-70
2022/03/20 06:25:59;;;;;;;15.25;7.30;;;;;;;;;;4074790;35;20189;-73
2022/03/20 06:28:34;;;;;;;11.40;6.95;;;;;;;;;;4063573;35;20105;-75
2022/03/20 06:34:42;;;;;;;10.73;7.68;;;;;;;;;;4105799;34;20190;-71
2022/03/20 06:37:08;;;;;;;21.45;6.97;;;;;;;;;;4114771;34;20517;-70
2022/03/20 06:39:34;;;;;;;14.05;7.22;;;;;;;;;;4121667;34;20194;-73
2022/03/20 06:42:01;;;;;;;12.95;8.48;;;;;;;;;;4119466;34;20136;-71
2022/03/20 06:44:38;;;;;;;11.93;8.32;;;;;;;;;;4127470;34;20468;-69
2022/03/20 06:47:26;;;;;;;12.85;7.25;;;;;;;;;;4133562;34;20115;-72
2022/03/20 06:49:53;;;;;;;13.60;6.90;;;;;;;;;;4139361;34;20576;-71
2022/03/20 06:52:23;;;;;;;11.02;7.43;;;;;;;;;;4124630;34;20196;-69
2022/03/20 06:54:50;;;;;;;13.98;7.20;;;;;;;;;;4124895;34;20220;-77
2022/03/20 06:57:20;;;;;;;12.52;7.50;;;;;;;;;;4124576;34;20512;-78
2022/03/20 06:59:46;;;;;;;14.38;8.20;;;;;;;;;;4124808;34;20108;-81
2022/03/20 07:02:12;;;;;;;11.50;7.10;;;;;;;;;;4147056;34;20119;-76
2022/03/20 07:04:39;;;;;;;11.23;5.65;;;;;;;;;;4137186;34;20123;-70
2022/03/20 07:07:05;;;;;;;11.52;7.32;;;;;;;;;;4146627;34;20511;-72
2022/03/20 07:09:31;;;;;;;10.07;6.95;;;;;;;;;;4136859;34;20119;-69
2022/03/20 07:11:57;;;;;;;12.93;7.10;;;;;;;;;;4138945;34;20115;-69
2022/03/20 07:14:23;;;;;;;9.60;6.75;;;;;;;;;;4113216;34;20224;-69
2022/03/20 07:16:50;;;;;;;9.52;7.10;;;;;;;;;;4146426;34;20203;-70
2022/03/20 07:19:16;;;;;;;11.32;7.57;;;;;;;;;;4131195;34;20501;-69
2022/03/20 07:21:42;;;;;;;11.88;6.95;;;;;;;;;;4110870;34;20130;-70
2022/03/20 07:24:08;;;;;;;10.82;6.50;;;;;;;;;;4123512;34;20112;-71
2022/03/20 07:29:30;;;;;;;10.25;7.03;;;;;;;;;;4122086;34;20152;-70
2022/03/20 07:32:06;;;;;;;9.88;6.87;;;;;;;;;;4123637;34;20111;-71
2022/03/20 07:34:34;;;;;;;8.93;6.55;;;;;;;;;;4134483;34;20116;-72
2022/03/20 07:37:01;;;;;;;10.32;6.90;;;;;;;;;;4136091;34;20200;-72
2022/03/20 07:39:27;;;;;;;8.90;6.45;;;;;;;;;;4124875;34;20125;-70
2022/03/20 07:41:53;;;;;;;11.50;6.30;;;;;;;;;;4134228;34;20089;-71
2022/03/20 07:44:21;;;;;;;13.07;7.15;;;;;;;;;;4123802;34;20449;-72
2022/03/20 07:46:47;;;;;;;11.27;7.07;;;;;;;;;;4100363;34;20119;-74
2022/03/20 07:49:14;;;;;;;10.43;6.47;;;;;;;;;;4123806;34;20108;-69
2022/03/20 07:51:42;;;;;;;10.95;7.55;;;;;;;;;;4111327;34;20139;-72
2022/03/20 07:54:08;;;;;;;10.95;6.65;;;;;;;;;;4112415;34;20127;-69
2022/03/20 07:56:37;;;;;;;10.38;7.03;;;;;;;;;;4122416;34;20120;-69
2022/03/20 07:59:07;;;;;;;13.70;7.07;;;;;;;;;;4126445;34;20143;-68
2022/03/20 08:01:34;;;;;;;9.05;6.35;;;;;;;;;;4124175;34;20127;-72
2022/03/20 08:04:00;;;;;;;11.60;7.60;;;;;;;;;;4133804;34;20120;-69
2022/03/20 08:06:27;;;;;;;10.82;7.75;;;;;;;;;;4142797;34;20143;-71
2022/03/20 08:08:53;;;;;;;16.70;9.27;;;;;;;;;;4141959;34;20123;-71
2022/03/20 08:11:20;;;;;;;12.30;9.35;;;;;;;;;;4120373;34;20115;-66
2022/03/20 08:13:46;;;;;;;10.27;7.10;;;;;;;;;;4131518;34;20127;-68
2022/03/20 08:16:15;;;;;;;14.80;7.20;;;;;;;;;;4143556;34;20093;-68
2022/03/20 08:18:43;;;;;;;12.18;7.70;;;;;;;;;;4145955;34;20115;-65
2022/03/20 08:21:13;;;;;;;11.77;7.25;;;;;;;;;;4146052;34;20528;-68
2022/03/20 08:23:40;;;;;;;12.25;7.68;;;;;;;;;;4135108;34;20208;-79
2022/03/20 08:26:08;;;;;;;13.10;7.95;;;;;;;;;;4134753;34;20142;-70
2022/03/20 08:28:45;;;;;;;11.18;7.43;;;;;;;;;;4136482;34;20095;-74
2022/03/20 08:31:14;;;;;;;10.45;7.15;;;;;;;;;;4124456;34;20542;-71
2022/03/20 08:33:40;;;;;;;18.27;7.65;;;;;;;;;;4146273;34;20126;-72
2022/03/20 08:36:07;;;;;;;9.75;6.50;;;;;;;;;;4135095;34;20222;-70
2022/03/20 08:38:33;;;;;;;13.93;7.18;;;;;;;;;;4136300;34;20106;-74
2022/03/20 08:41:00;;;;;;;10.55;7.12;;;;;;;;;;4133994;34;20147;-73
2022/03/20 08:43:26;;;;;;;12.20;7.85;;;;;;;;;;4123847;34;20122;-72
2022/03/20 08:45:52;;;;;;;11.18;7.35;;;;;;;;;;4145794;34;20152;-72
2022/03/20 08:48:19;;;;;;;13.73;7.90;;;;;;;;;;4124034;34;20417;-74
2022/03/20 08:50:48;;;;;;;16.12;8.30;;;;;;;;;;4145716;34;20553;-72
2022/03/20 08:53:19;;;;;;;11.90;7.50;;;;;;;;;;4146029;34;20103;-75
2022/03/20 08:55:46;;;;;;;12.57;8.15;;;;;;;;;;4123460;34;20201;-73
2022/03/20 08:58:12;;;;;;;10.27;9.00;;;;;;;;;;4146024;34;20246;-70
2022/03/20 09:00:39;;;;;;;11.80;9.35;;;;;;;;;;4143907;34;20107;-69
2022/03/20 09:03:06;;;;;;;15.32;9.25;;;;;;;;;;4123870;34;20521;-68
2022/03/20 09:05:32;;;;;;;13.30;10.05;;;;;;;;;;4136083;34;20135;-70
2022/03/20 09:07:58;;;;;;;13.20;9.27;;;;;;;;;;4137005;34;20107;-71
2022/03/20 09:10:25;;;;;;;12.13;9.20;;;;;;;;;;4123672;34;20196;-71
2022/03/20 09:12:55;;;;;;;11.55;8.95;;;;;;;;;;4123631;34;20262;-67
2022/03/20 09:15:22;;;;;;;16.62;9.38;;;;;;;;;;4123421;34;20095;-70
2022/03/20 09:20:34;;;;;;;14.70;9.32;;;;;;;;;;4135988;34;20134;-71
2022/03/20 09:23:00;;;;;;;13.48;8.73;;;;;;;;;;4123610;34;20451;-73
2022/03/20 09:25:26;;;;;;;11.02;8.77;;;;;;;;;;4123539;34;20449;-76
2022/03/20 09:27:53;;;;;;;12.30;8.93;;;;;;;;;;4123907;34;20096;-76
2022/03/20 09:30:19;;;;;;;15.93;8.50;;;;;;;;;;4132139;34;20111;-74
2022/03/20 09:32:45;;;;;;;16.27;9.23;;;;;;;;;;4109852;34;20169;-74
2022/03/20 09:35:12;;;;;;;12.75;9.15;;;;;;;;;;4110059;34;20115;-73
2022/03/20 09:37:39;;;;;;;10.05;8.63;;;;;;;;;;4098919;34;20485;-76
2022/03/20 09:40:06;;;;;;;13.93;8.70;;;;;;;;;;4109927;34;20123;-72
2022/03/20 09:42:34;;;;;;;14.73;8.98;;;;;;;;;;4122294;34;20525;-72
2022/03/20 09:45:00;;;;;;;12.82;9.27;;;;;;;;;;4117153;34;20147;-70
2022/03/20 09:47:26;;;;;;;11.95;9.60;;;;;;;;;;4120724;34;20171;-67
2022/03/20 09:49:55;;;;;;;10.90;9.43;;;;;;;;;;4110085;34;20135;-69
2022/03/20 09:52:22;;;;;;;15.38;9.50;;;;;;;;;;4111151;34;20473;-73
2022/03/20 09:54:48;;;;;;;11.27;9.23;;;;;;;;;;4134184;34;20104;-68
2022/03/20 09:57:15;;;;;;;15.30;8.75;;;;;;;;;;4133915;34;20107;-67
2022/03/20 09:59:41;;;;;;;14.95;8.07;;;;;;;;;;4135735;34;20452;-67
2022/03/20 10:02:12;;;;;;;10.40;8.18;;;;;;;;;;4146560;34;20099;-67
2022/03/20 10:04:58;;;;;;;9.20;6.57;;;;;;;;;;4150994;34;20501;-68
2022/03/20 10:07:27;;;;;;;9.48;6.12;;;;;;;;;;4138081;34;20574;-68
2022/03/20 10:10:26;;;;;;;8.38;6.72;;;;;;;;;;4150625;34;20521;-67
2022/03/20 10:12:55;;;;;;;7.15;5.60;;;;;;;;;;4108875;34;20143;-68
2022/03/20 10:15:34;;;;;;;7.65;5.37;;;;;;;;;;4138250;34;20125;-68
2022/03/20 10:18:20;;;;;;;8.35;5.93;;;;;;;;;;4150787;34;20111;-68
2022/03/20 10:20:47;;;;;;;;;;;;;;;;;;4127063;34;20511;-67
2022/03/20 10:23:36;;;;;;;7.37;5.55;;;;;;;;;;4138342;34;20001;-69
2022/03/20 10:26:10;;;;;;;9.77;5.90;;;;;;;;;;4137550;34;20087;-68
2022/03/20 10:28:40;;;;;;;6.95;5.40;;;;;;;;;;4128651;34;20102;-69
2022/03/20 10:31:09;;;;;;;10.88;6.35;;;;;;;;;;4125587;34;20115;-69
2022/03/20 10:33:40;;;;;;;10.20;6.20;;;;;;;;;;4137187;34;20118;-69
2022/03/20 10:36:20;;;;;;;7.78;5.45;;;;;;;;;;4125439;34;20125;-66
2022/03/20 10:38:48;;;;;;;7.20;5.70;;;;;;;;;;4135338;34;20555;-69
2022/03/20 10:41:26;;;;;;;9.05;6.53;;;;;;;;;;4121449;34;20213;-67
2022/03/20 10:43:54;;;;;;;9.45;6.60;;;;;;;;;;4113453;34;20139;-68
2022/03/20 10:46:24;;;;;;;9.82;6.68;;;;;;;;;;4124687;34;21143;-68
2022/03/20 10:49:02;;;;;;;8.82;5.97;;;;;;;;;;4135126;34;20228;-65
2022/03/20 10:51:39;;;;;;;12.43;6.50;;;;;;;;;;4129405;34;20100;-66
2022/03/20 10:54:05;;;;;;;9.55;6.43;;;;;;;;;;4125378;34;20115;-68
2022/03/20 10:56:32;;;;;;;7.15;5.18;;;;;;;;;;4123944;34;20103;-67
2022/03/20 10:58:58;;;;;;;9.48;6.32;;;;;;;;;;4124331;34;20129;-66
2022/03/20 11:01:38;;;;;;;11.52;6.93;;;;;;;;;;4124458;34;20187;-65
2022/03/20 11:04:05;;;;;;;6.43;5.47;;;;;;;;;;4136279;34;20115;-65
2022/03/20 11:06:31;;;;;;;11.18;6.85;;;;;;;;;;4135164;34;20196;-65
2022/03/20 11:08:57;;;;;;;8.13;6.30;;;;;;;;;;4137031;34;20131;-64
2022/03/20 11:11:24;;;;;;;8.85;6.10;;;;;;;;;;4124333;34;20215;-66
2022/03/20 11:13:50;;;;;;;8.90;6.12;;;;;;;;;;4137148;34;20573;-66
2022/03/20 11:16:20;;;;;;;9.35;5.93;;;;;;;;;;4124583;34;20182;-65
2022/03/20 11:18:48;;;;;;;9.18;5.60;;;;;;;;;;4124572;34;20122;-65
2022/03/20 11:21:15;;;;;;;11.27;6.12;;;;;;;;;;4124201;34;20102;-64
2022/03/20 11:23:44;;;;;;;8.15;6.10;;;;;;;;;;4124372;34;20124;-69
2022/03/20 11:26:12;;;;;;;9.02;6.65;;;;;;;;;;4113156;34;20110;-66
2022/03/20 11:28:45;;;;;;;9.55;6.57;;;;;;;;;;4123948;34;20091;-66
2022/03/20 11:31:13;;;;;;;10.60;7.80;;;;;;;;;;4136436;34;20217;-65
2022/03/20 11:33:39;;;;;;;9.20;7.28;;;;;;;;;;4110024;34;20100;-64
2022/03/20 11:36:05;;;;;;;10.27;7.85;;;;;;;;;;4121303;34;20135;-65
2022/03/20 11:38:35;;;;;;;11.98;8.07;;;;;;;;;;4135930;34;20453;-65
2022/03/20 11:41:13;;;;;;;12.18;9.95;;;;;;;;;;4123878;34;20123;-65
2022/03/20 11:43:41;;;;;;;10.85;9.00;;;;;;;;;;4123824;34;20547;-62
2022/03/20 11:46:28;;;;;;;11.95;9.35;;;;;;;;;;4136261;34;20135;-63
2022/03/20 11:49:20;;;;;;;14.98;9.15;;;;;;;;;;4126653;34;20124;-65
2022/03/20 11:52:12;;;;;;;12.45;9.10;;;;;;;;;;4121509;34;20208;-65
2022/03/20 11:54:41;;;;;;;12.65;7.80;;;;;;;;;;4098428;34;20213;-65
2022/03/20 11:57:26;;;;;;;13.13;9.10;;;;;;;;;;4123139;34;20516;-65
2022/03/20 12:00:13;;;;;;;9.23;6.75;;;;;;;;;;4122443;34;20507;-66
2022/03/20 12:02:53;;;;;;;8.90;7.93;;;;;;;;;;4124255;34;20199;-66
2022/03/20 12:06:00;;;;;;;11.85;8.20;;;;;;;;;;4107662;34;20107;-63
2022/03/20 12:08:58;;;;;;;13.25;8.35;;;;;;;;;;4105750;34;20193;-62
2022/03/20 12:11:55;;;;;;;9.75;8.13;;;;;;;;;;4122814;34;20111;-64
2022/03/20 12:14:23;;;;;;;9.75;7.80;;;;;;;;;;4134268;34;20131;-66
2022/03/20 12:16:50;;;;;;;11.27;8.05;;;;;;;;;;4136413;34;20182;-63
2022/03/20 12:19:21;;;;;;;13.25;8.75;;;;;;;;;;4116726;34;20119;-66
2022/03/20 12:21:56;;;;;;;14.13;8.48;;;;;;;;;;4120736;34;20143;-67
2022/03/20 12:24:34;;;;;;;12.63;8.75;;;;;;;;;;4130583;34;20096;-63
2022/03/20 12:27:29;;;;;;;12.90;8.48;;;;;;;;;;4123052;34;20633;-63
2022/03/20 12:30:14;;;;;;;9.50;7.95;;;;;;;;;;4135650;34;20096;-66
2022/03/20 12:32:52;;;;;;;14.05;8.57;;;;;;;;;;4135833;34;20135;-67
2022/03/20 12:35:27;;;;;;;11.80;8.20;;;;;;;;;;4110401;34;20096;-66
2022/03/20 12:37:55;;;;;;;11.32;8.20;;;;;;;;;;4124051;34;20156;-67
2022/03/20 12:40:32;;;;;;;10.60;8.15;;;;;;;;;;4136247;34;20147;-65
2022/03/20 12:43:08;;;;;;;14.50;8.82;;;;;;;;;;4136075;34;20112;-64
2022/03/20 12:45:35;;;;;;;12.75;8.55;;;;;;;;;;4123411;34;20119;-65
2022/03/20 12:48:07;;;;;;;11.60;8.27;;;;;;;;;;4122279;34;20111;-64
2022/03/20 12:50:39;;;;;;;10.13;7.70;;;;;;;;;;4112398;34;20122;-68
2022/03/20 12:53:17;;;;;;;10.20;6.55;;;;;;;;;;4135955;34;20087;-66
2022/03/20 12:55:57;;;;;;;9.02;7.10;;;;;;;;;;4135827;34;20119;-68
2022/03/20 12:58:24;;;;;;;10.75;7.35;;;;;;;;;;4123601;34;20126;-67
2022/03/20 13:00:52;;;;;;;11.32;7.53;;;;;;;;;;4135512;34;20119;-64
2022/03/20 13:03:19;;;;;;;10.80;7.68;;;;;;;;;;4135881;34;20127;-63
2022/03/20 13:05:45;;;;;;;12.43;8.95;;;;;;;;;;4122468;34;20121;-68
2022/03/20 13:08:18;;;;;;;11.68;7.78;;;;;;;;;;4135228;34;20111;-66
2022/03/20 13:10:44;;;;;;;9.50;7.57;;;;;;;;;;4123021;34;20126;-65
2022/03/20 13:13:13;;;;;;;14.30;8.15;;;;;;;;;;4112394;34;20118;-66
2022/03/20 13:15:40;;;;;;;10.95;7.70;;;;;;;;;;4135387;34;20284;-67
2022/03/20 13:18:08;;;;;;;14.60;7.62;;;;;;;;;;4122805;34;20106;-67
2022/03/20 13:20:38;;;;;;;11.52;7.80;;;;;;;;;;4111606;34;20208;-64
2022/03/20 13:23:07;;;;;;;9.82;6.97;;;;;;;;;;4119902;34;20303;-70
2022/03/20 13:25:39;;;;;;;7.93;6.57;;;;;;;;;;4112251;34;20115;-66
2022/03/20 13:28:08;;;;;;;7.47;6.72;;;;;;;;;;4136964;34;20483;-64
2022/03/20 13:30:42;;;;;;;8.70;6.80;;;;;;;;;;4137449;34;20200;-67
2022/03/20 13:33:08;;;;;;;10.48;6.70;;;;;;;;;;4136231;34;20106;-65
2022/03/20 13:35:34;;;;;;;9.55;7.28;;;;;;;;;;4119686;34;20208;-66
2022/03/20 13:38:02;;;;;;;12.43;7.22;;;;;;;;;;4116682;34;20115;-65
2022/03/20 13:40:30;;;;;;;9.77;6.60;;;;;;;;;;4133468;34;20540;-65
2022/03/20 13:42:56;;;;;;;8.23;6.50;;;;;;;;;;4133007;34;20127;-65
2022/03/20 13:45:25;;;;;;;9.70;6.37;;;;;;;;;;4121181;34;20619;-66
2022/03/20 13:47:52;;;;;;;5.72;4.90;;;;;;;;;;4099064;34;20124;-65
2022/03/20 13:50:19;;;;;;;6.97;5.12;;;;;;;;;;4122034;34;20216;-67
2022/03/20 13:52:50;;;;;;;6.95;5.47;;;;;;;;;;4113436;34;20205;-65
2022/03/20 13:55:21;;;;;;;5.68;5.07;;;;;;;;;;4114516;34;20119;-68
2022/03/20 13:57:49;;;;;;;8.73;5.35;;;;;;;;;;4125298;34;20203;-64
2022/03/20 14:00:16;;;;;;;9.07;5.90;;;;;;;;;;4124833;34;20138;-67
2022/03/20 14:02:48;;;;;;;8.98;5.75;;;;;;;;;;4113665;34;20103;-64
2022/03/20 14:05:25;;;;;;;6.37;5.20;;;;;;;;;;4125288;34;20126;-65
2022/03/20 14:08:19;;;;;;;7.15;4.70;;;;;;;;;;4136781;34;20115;-65
2022/03/20 14:10:46;;;;;;;7.15;4.72;;;;;;;;;;4123633;34;20554;-63
2022/03/20 14:13:18;;;;;;;9.52;6.18;;;;;;;;;;4136046;34;20470;-66
2022/03/20 14:16:10;;;;;;;6.72;4.90;;;;;;;;;;4132194;34;20301;-69
2022/03/20 14:18:42;;;;;;;6.55;4.75;;;;;;;;;;4134978;34;20473;-66
2022/03/20 14:21:11;;;;;;;6.50;4.35;;;;;;;;;;4111188;34;20116;-66
2022/03/20 14:23:52;;;;;;;5.30;4.40;;;;;;;;;;4134895;34;20130;-63
2022/03/20 14:26:21;;;;;;;6.93;4.53;;;;;;;;;;4136030;34;20108;-66
2022/03/20 14:29:00;;;;;;;6.95;4.53;;;;;;;;;;4113057;34;20107;-66
2022/03/20 14:39:47;;;;;;;6.15;5.25;;;;;;;;;;4123606;34;20123;-65
2022/03/20 14:42:29;;;;;;;5.62;5.00;;;;;;;;;;4113463;34;20108;-66
2022/03/20 14:44:55;;;;;;;7.20;4.90;;;;;;;;;;4137129;34;20116;-68
2022/03/20 14:47:23;;;;;;;7.57;5.53;;;;;;;;;;4113122;34;20131;-65
2022/03/20 14:49:53;;;;;;;6.43;5.10;;;;;;;;;;4137241;34;20644;-66
2022/03/20 14:52:20;;;;;;;7.87;5.60;;;;;;;;;;4136702;34;20215;-64
2022/03/20 14:54:47;;;;;;;7.10;5.65;;;;;;;;;;4114085;34;20392;-67
2022/03/20 14:57:13;;;;;;;7.12;5.43;;;;;;;;;;4124390;34;20130;-66
2022/03/20 14:59:40;;;;;;;6.93;5.32;;;;;;;;;;4112111;34;20111;-64
2022/03/20 15:02:08;;;;;;;8.35;5.90;;;;;;;;;;4128625;34;20209;-64
2022/03/20 15:04:34;;;;;;;6.62;5.30;;;;;;;;;;4137168;34;20130;-65
2022/03/20 15:07:01;;;;;;;8.50;5.62;;;;;;;;;;4137063;34;20585;-64
2022/03/20 15:12:12;;;;;;;5.70;4.70;;;;;;;;;;4136535;34;20112;-64
2022/03/20 15:14:38;;;;;;;7.07;4.95;;;;;;;;;;4102669;34;20135;-63
2022/03/20 15:17:07;;;;;;;8.57;5.53;;;;;;;;;;4113362;34;20157;-64
2022/03/20 15:19:33;;;;;;;7.75;5.50;;;;;;;;;;4124710;34;20111;-65
2022/03/20 15:22:00;;;;;;;6.07;5.00;;;;;;;;;;4136391;34;20131;-64
2022/03/20 15:24:26;;;;;;;7.70;4.80;;;;;;;;;;4124696;34;20088;-63
2022/03/20 15:26:52;;;;;;;7.03;4.65;;;;;;;;;;4136658;34;20130;-65
2022/03/20 15:29:18;;;;;;;7.12;5.28;;;;;;;;;;4136907;34;20500;-66
2022/03/20 15:31:45;;;;;;;7.22;4.90;;;;;;;;;;4123975;34;20100;-70
2022/03/20 15:34:12;;;;;;;6.82;4.72;;;;;;;;;;4113337;34;20175;-66
2022/03/20 15:36:39;;;;;;;8.10;4.75;;;;;;;;;;4136685;34;20130;-70
2022/03/20 15:39:13;;;;;;;8.27;5.32;;;;;;;;;;4113605;34;20302;-66
2022/03/20 15:41:40;;;;;;;6.53;4.78;;;;;;;;;;4123721;34;20092;-66
2022/03/20 15:44:08;;;;;;;5.87;4.70;;;;;;;;;;4136661;34;20625;-64
2022/03/20 15:46:35;;;;;;;6.35;4.45;;;;;;;;;;4136691;34;20147;-65
2022/03/20 15:49:05;;;;;;;8.75;5.15;;;;;;;;;;4113260;34;20870;-67
2022/03/20 15:51:32;;;;;;;8.02;4.47;;;;;;;;;;4136411;34;20204;-67
2022/03/20 15:53:59;;;;;;;5.93;4.57;;;;;;;;;;4124232;34;20107;-64
2022/03/20 15:56:26;;;;;;;6.03;4.32;;;;;;;;;;4113364;34;20103;-67
2022/03/20 15:58:52;;;;;;;6.55;4.82;;;;;;;;;;4136370;34;20126;-65
2022/03/20 16:01:21;;;;;;;6.85;4.43;;;;;;;;;;4136557;34;20143;-67